Hillburn, New York
Current Conditions -  °F | °C
As of 3:53 AM on Tuesday 21 Oct 2014 (Local Time) from KCDW Reporting Station
Broken Clouds Broken Clouds  
Wind Chill: 47°   Ceiling: 9000
Heat Index: 47°   Visibility: 10mi
Dew Point: 42°   Wind: 0mph
Humidity: 83%   Direction: NA
Pressure: 29.92"   Gusts: NA
Location:  41.12°N, 74.17°W
Report Text: KCDW 210753Z AUTO 00000KT 10SM BKN090 08/06 A2992 RMK AO2 SLP137 T00830056 TSNO
Loading
Personal Weather Stations






























Interactive Weather Map New forecast layout! Learn more

10-Day Weather Forecast

Advertisements
Track Severe Weather on mobile